sensor_id;sensor_type;location;lat;lon;timestamp;pressure;altitude;pressure_sealevel;temperature;humidity
41688;BME280;27371;42.686;23.362;2023-08-24T00:00:10;168288.44;;;23.29;59.65
41688;BME280;27371;42.686;23.362;2023-08-24T00:02:36;168291.16;;;23.30;59.79
41688;BME280;27371;42.686;23.362;2023-08-24T00:05:03;168293.84;;;23.31;59.96
41688;BME280;27371;42.686;23.362;2023-08-24T00:07:29;168254.84;;;23.16;60.06
41688;BME280;27371;42.686;23.362;2023-08-24T00:09:54;168273.63;;;23.23;60.27
41688;BME280;27371;42.686;23.362;2023-08-24T00:12:20;168250.78;;;23.15;60.64
41688;BME280;27371;42.686;23.362;2023-08-24T00:14:45;168187.50;;;22.90;61.05
41688;BME280;27371;42.686;23.362;2023-08-24T00:17:11;168194.22;;;22.93;60.89
41688;BME280;27371;42.686;23.362;2023-08-24T00:19:36;168249.44;;;23.14;60.57
41688;BME280;27371;42.686;23.362;2023-08-24T00:22:02;168250.78;;;23.15;60.56
41688;BME280;27371;42.686;23.362;2023-08-24T00:24:27;168221.19;;;23.03;60.77
41688;BME280;27371;42.686;23.362;2023-08-24T00:26:53;168235.97;;;23.09;61.49
41688;BME280;27371;42.686;23.362;2023-08-24T00:29:18;168207.72;;;22.98;61.58
41688;BME280;27371;42.686;23.362;2023-08-24T00:31:44;168230.59;;;23.07;61.48
41688;BME280;27371;42.686;23.362;2023-08-24T00:34:09;168231.97;;;23.07;61.39
41688;BME280;27371;42.686;23.362;2023-08-24T00:36:35;168161.97;;;22.81;61.81
41688;BME280;27371;42.686;23.362;2023-08-24T00:39:00;168152.56;;;22.77;62.43
41688;BME280;27371;42.686;23.362;2023-08-24T00:41:26;168112.19;;;22.62;63.04
41688;BME280;27371;42.686;23.362;2023-08-24T00:43:51;168110.84;;;22.61;63.03
41688;BME280;27371;42.686;23.362;2023-08-24T00:46:17;168105.44;;;22.59;63.17
41688;BME280;27371;42.686;23.362;2023-08-24T00:48:44;168105.44;;;22.59;63.22
41688;BME280;27371;42.686;23.362;2023-08-24T00:51:09;168069.13;;;22.45;63.80
41688;BME280;27371;42.686;23.362;2023-08-24T00:53:36;168057.03;;;22.41;64.20
41688;BME280;27371;42.686;23.362;2023-08-24T00:56:02;168036.88;;;22.33;64.29
41688;BME280;27371;42.686;23.362;2023-08-24T00:58:28;168042.22;;;22.35;64.33
41688;BME280;27371;42.686;23.362;2023-08-24T01:00:57;168012.66;;;22.24;64.69
41688;BME280;27371;42.686;23.362;2023-08-24T01:03:23;168007.31;;;22.22;64.91
41688;BME280;27371;42.686;23.362;2023-08-24T01:05:49;168013.97;;;22.24;64.77
41688;BME280;27371;42.686;23.362;2023-08-24T01:08:15;168034.16;;;22.32;64.51
41688;BME280;27371;42.686;23.362;2023-08-24T01:10:52;168024.75;;;22.29;64.37
41688;BME280;27371;42.686;23.362;2023-08-24T01:13:30;168008.63;;;22.22;64.51
41688;BME280;27371;42.686;23.362;2023-08-24T01:16:25;168007.31;;;22.22;65.28
41688;BME280;27371;42.686;23.362;2023-08-24T01:18:54;168000.56;;;22.19;65.30
41688;BME280;27371;42.686;23.362;2023-08-24T01:21:20;167984.34;;;22.13;65.63
41688;BME280;27371;42.686;23.362;2023-08-24T01:26:19;167929.25;;;21.92;66.34
41688;BME280;27371;42.686;23.362;2023-08-24T01:28:46;167937.31;;;21.95;66.46
41688;BME280;27371;42.686;23.362;2023-08-24T01:31:15;167890.22;;;21.77;67.15
41688;BME280;27371;42.686;23.362;2023-08-24T01:33:42;167843.19;;;21.60;67.91
41688;BME280;27371;42.686;23.362;2023-08-24T01:36:12;167800.19;;;21.43;68.42
41688;BME280;27371;42.686;23.362;2023-08-24T01:38:38;167755.78;;;21.26;69.02
41688;BME280;27371;42.686;23.362;2023-08-24T01:41:24;167718.16;;;21.12;69.00
41688;BME280;27371;42.686;23.362;2023-08-24T01:43:53;167732.94;;;21.18;68.94
41688;BME280;27371;42.686;23.362;2023-08-24T01:46:21;167718.16;;;21.12;68.75
41688;BME280;27371;42.686;23.362;2023-08-24T01:48:47;167728.88;;;21.16;68.42
41688;BME280;27371;42.686;23.362;2023-08-24T01:51:14;167726.22;;;21.15;68.37
41688;BME280;27371;42.686;23.362;2023-08-24T01:53:40;167728.88;;;21.16;68.34
41688;BME280;27371;42.686;23.362;2023-08-24T01:56:13;167749.06;;;21.24;67.82
41688;BME280;27371;42.686;23.362;2023-08-24T01:58:40;167761.16;;;21.28;68.13
41688;BME280;27371;42.686;23.362;2023-08-24T02:01:07;167673.81;;;20.95;67.94
41688;BME280;27371;42.686;23.362;2023-08-24T02:03:33;167745.00;;;21.22;67.51
41688;BME280;27371;42.686;23.362;2023-08-24T02:05:58;167657.63;;;20.89;67.51
41688;BME280;27371;42.686;23.362;2023-08-24T02:08:24;167730.22;;;21.17;67.68
41688;BME280;27371;42.686;23.362;2023-08-24T02:10:50;167718.16;;;21.12;68.06
41688;BME280;27371;42.686;23.362;2023-08-24T02:13:15;167736.94;;;21.19;67.76
41688;BME280;27371;42.686;23.362;2023-08-24T02:15:41;167739.66;;;21.20;67.37
41688;BME280;27371;42.686;23.362;2023-08-24T02:18:07;167735.59;;;21.19;67.21
41688;BME280;27371;42.686;23.362;2023-08-24T02:20:37;167704.69;;;21.07;67.31
41688;BME280;27371;42.686;23.362;2023-08-24T02:23:03;167715.44;;;21.11;67.34
41688;BME280;27371;42.686;23.362;2023-08-24T02:25:29;167711.44;;;21.09;67.16
41688;BME280;27371;42.686;23.362;2023-08-24T02:27:54;167723.50;;;21.14;67.07
41688;BME280;27371;42.686;23.362;2023-08-24T02:30:20;167724.88;;;21.15;66.72
41688;BME280;27371;42.686;23.362;2023-08-24T02:32:45;167736.94;;;21.19;66.53
41688;BME280;27371;42.686;23.362;2023-08-24T02:35:11;167750.38;;;21.24;66.19
41688;BME280;27371;42.686;23.362;2023-08-24T02:37:36;167747.72;;;21.23;66.19
41688;BME280;27371;42.686;23.362;2023-08-24T02:40:02;167741.00;;;21.21;66.11
41688;BME280;27371;42.686;23.362;2023-08-24T02:42:30;167653.63;;;20.87;66.21
41688;BME280;27371;42.686;23.362;2023-08-24T02:44:57;167767.84;;;21.31;66.76
41688;BME280;27371;42.686;23.362;2023-08-24T02:47:22;167765.16;;;21.30;67.44
41688;BME280;27371;42.686;23.362;2023-08-24T02:49:48;167765.16;;;21.30;67.88
41688;BME280;27371;42.686;23.362;2023-08-24T02:52:14;167718.16;;;21.12;68.42
41688;BME280;27371;42.686;23.362;2023-08-24T02:54:39;167731.53;;;21.17;68.64
41688;BME280;27371;42.686;23.362;2023-08-24T02:57:05;167738.28;;;21.20;68.40
41688;BME280;27371;42.686;23.362;2023-08-24T02:59:30;167747.72;;;21.23;68.83
41688;BME280;27371;42.686;23.362;2023-08-24T03:01:56;167730.22;;;21.17;68.65
41688;BME280;27371;42.686;23.362;2023-08-24T03:04:21;167759.78;;;21.28;68.58
41688;BME280;27371;42.686;23.362;2023-08-24T03:06:47;167753.06;;;21.25;69.22
41688;BME280;27371;42.686;23.362;2023-08-24T03:09:12;167736.94;;;21.19;68.61
41688;BME280;27371;42.686;23.362;2023-08-24T03:11:38;167672.41;;;20.95;68.58
41688;BME280;27371;42.686;23.362;2023-08-24T03:14:04;167703.38;;;21.06;68.74
41688;BME280;27371;42.686;23.362;2023-08-24T03:16:29;167699.31;;;21.05;68.82
41688;BME280;27371;42.686;23.362;2023-08-24T03:18:55;167675.13;;;20.96;68.76
41688;BME280;27371;42.686;23.362;2023-08-24T03:21:20;167672.41;;;20.95;68.86
41688;BME280;27371;42.686;23.362;2023-08-24T03:23:46;167656.31;;;20.88;69.25
41688;BME280;27371;42.686;23.362;2023-08-24T03:26:12;167618.69;;;20.74;69.05
41688;BME280;27371;42.686;23.362;2023-08-24T03:28:37;167638.84;;;20.82;68.92
41688;BME280;27371;42.686;23.362;2023-08-24T03:31:03;167597.19;;;20.66;68.89
41688;BME280;27371;42.686;23.362;2023-08-24T03:33:28;167624.06;;;20.76;69.29
41688;BME280;27371;42.686;23.362;2023-08-24T03:35:54;167597.19;;;20.66;69.41
41688;BME280;27371;42.686;23.362;2023-08-24T03:38:20;167417.09;;;19.97;69.37
41688;BME280;27371;42.686;23.362;2023-08-24T03:40:45;167613.31;;;20.72;69.57
41688;BME280;27371;42.686;23.362;2023-08-24T03:43:11;167610.63;;;20.71;69.49
41688;BME280;27371;42.686;23.362;2023-08-24T03:45:36;167626.75;;;20.77;69.58
41688;BME280;27371;42.686;23.362;2023-08-24T03:48:02;167637.47;;;20.81;69.53
41688;BME280;27371;42.686;23.362;2023-08-24T03:50:27;167620.03;;;20.75;69.64
41688;BME280;27371;42.686;23.362;2023-08-24T03:52:53;167638.84;;;20.82;70.30
41688;BME280;27371;42.686;23.362;2023-08-24T03:55:20;167632.13;;;20.79;70.44
41688;BME280;27371;42.686;23.362;2023-08-24T03:57:45;167646.91;;;20.85;70.67
41688;BME280;27371;42.686;23.362;2023-08-24T04:00:11;167650.91;;;20.86;70.79
41688;BME280;27371;42.686;23.362;2023-08-24T04:02:44;167648.25;;;20.85;71.41
41688;BME280;27371;42.686;23.362;2023-08-24T04:05:10;167650.91;;;20.86;71.32
41688;BME280;27371;42.686;23.362;2023-08-24T04:07:35;167462.75;;;20.15;71.23
41688;BME280;27371;42.686;23.362;2023-08-24T04:10:06;167630.81;;;20.79;71.48
41688;BME280;27371;42.686;23.362;2023-08-24T04:12:32;167658.97;;;20.89;71.27
41688;BME280;27371;42.686;23.362;2023-08-24T04:14:58;167650.91;;;20.86;71.25
41688;BME280;27371;42.686;23.362;2023-08-24T04:17:24;167679.16;;;20.97;71.48
41688;BME280;27371;42.686;23.362;2023-08-24T04:19:49;167689.94;;;21.01;71.35
41688;BME280;27371;42.686;23.362;2023-08-24T04:22:15;167658.97;;;20.89;71.79
41688;BME280;27371;42.686;23.362;2023-08-24T04:24:41;167671.09;;;20.94;71.86
41688;BME280;27371;42.686;23.362;2023-08-24T04:27:06;167675.13;;;20.96;72.27
41688;BME280;27371;42.686;23.362;2023-08-24T04:29:32;167606.56;;;20.69;72.25
41688;BME280;27371;42.686;23.362;2023-08-24T04:31:57;167661.69;;;20.90;72.17
41688;BME280;27371;42.686;23.362;2023-08-24T04:34:23;167676.47;;;20.96;72.24
41688;BME280;27371;42.686;23.362;2023-08-24T04:36:48;167704.69;;;21.07;72.37
41688;BME280;27371;42.686;23.362;2023-08-24T04:39:15;167722.16;;;21.13;71.92
41688;BME280;27371;42.686;23.362;2023-08-24T04:41:40;167723.50;;;21.14;71.54
41688;BME280;27371;42.686;23.362;2023-08-24T04:44:06;167734.28;;;21.18;71.71
41688;BME280;27371;42.686;23.362;2023-08-24T04:46:33;167728.88;;;21.16;71.47
41688;BME280;27371;42.686;23.362;2023-08-24T04:48:59;167730.22;;;21.17;71.04
41688;BME280;27371;42.686;23.362;2023-08-24T04:51:24;167728.88;;;21.16;71.21
41688;BME280;27371;42.686;23.362;2023-08-24T04:53:53;167734.28;;;21.18;71.09
41688;BME280;27371;42.686;23.362;2023-08-24T04:56:18;167732.94;;;21.18;71.56
41688;BME280;27371;42.686;23.362;2023-08-24T04:58:57;167723.50;;;21.14;71.50
41688;BME280;27371;42.686;23.362;2023-08-24T05:01:26;167788.06;;;21.39;70.96
41688;BME280;27371;42.686;23.362;2023-08-24T05:03:53;167817.63;;;21.50;71.04
41688;BME280;27371;42.686;23.362;2023-08-24T05:06:20;167810.91;;;21.47;70.51
41688;BME280;27371;42.686;23.362;2023-08-24T05:08:45;167843.19;;;21.60;70.77
41688;BME280;27371;42.686;23.362;2023-08-24T05:11:16;167759.78;;;21.28;70.60
41688;BME280;27371;42.686;23.362;2023-08-24T05:13:42;167863.38;;;21.67;70.66
41688;BME280;27371;42.686;23.362;2023-08-24T05:16:09;167909.06;;;21.85;69.48
41688;BME280;27371;42.686;23.362;2023-08-24T05:18:35;167868.72;;;21.69;69.68
41688;BME280;27371;42.686;23.362;2023-08-24T05:21:04;167860.66;;;21.66;69.95
41688;BME280;27371;42.686;23.362;2023-08-24T05:23:30;167849.94;;;21.62;69.65
41688;BME280;27371;42.686;23.362;2023-08-24T05:25:57;167844.53;;;21.60;69.75
41688;BME280;27371;42.686;23.362;2023-08-24T05:28:26;167794.78;;;21.41;69.72
41688;BME280;27371;42.686;23.362;2023-08-24T05:30:56;167781.28;;;21.36;70.08
41688;BME280;27371;42.686;23.362;2023-08-24T05:33:24;167794.78;;;21.41;69.50
41688;BME280;27371;42.686;23.362;2023-08-24T05:35:50;167758.44;;;21.27;69.38
41688;BME280;27371;42.686;23.362;2023-08-24T05:38:16;167656.31;;;20.88;68.67
41688;BME280;27371;42.686;23.362;2023-08-24T05:40:43;167563.56;;;20.53;69.44
41688;BME280;27371;42.686;23.362;2023-08-24T05:43:09;167532.63;;;20.41;70.58
41688;BME280;27371;42.686;23.362;2023-08-24T05:45:35;167527.25;;;20.39;71.32
41688;BME280;27371;42.686;23.362;2023-08-24T05:48:01;167538.03;;;20.43;71.02
41688;BME280;27371;42.686;23.362;2023-08-24T05:50:26;167590.47;;;20.63;71.52
41688;BME280;27371;42.686;23.362;2023-08-24T05:52:52;167622.69;;;20.76;72.53
41688;BME280;27371;42.686;23.362;2023-08-24T05:55:18;167680.47;;;20.98;72.39
41688;BME280;27371;42.686;23.362;2023-08-24T05:57:44;167767.84;;;21.31;70.90
41688;BME280;27371;42.686;23.362;2023-08-24T06:00:10;167867.38;;;21.69;69.67
41688;BME280;27371;42.686;23.362;2023-08-24T06:02:36;167956.09;;;22.02;68.19
41688;BME280;27371;42.686;23.362;2023-08-24T06:05:02;168044.94;;;22.36;66.69
41688;BME280;27371;42.686;23.362;2023-08-24T06:07:29;168170.03;;;22.84;65.06
41688;BME280;27371;42.686;23.362;2023-08-24T06:09:56;168261.56;;;23.19;63.24
41688;BME280;27371;42.686;23.362;2023-08-24T06:12:22;168398.88;;;23.71;61.89
41688;BME280;27371;42.686;23.362;2023-08-24T06:14:50;168478.22;;;24.01;60.30
41688;BME280;27371;42.686;23.362;2023-08-24T06:17:16;168529.41;;;24.20;59.13
41688;BME280;27371;42.686;23.362;2023-08-24T06:19:41;168618.28;;;24.54;58.13
41688;BME280;27371;42.686;23.362;2023-08-24T06:22:07;168700.41;;;24.85;57.17
41688;BME280;27371;42.686;23.362;2023-08-24T06:24:33;168740.81;;;25.01;56.13
41688;BME280;27371;42.686;23.362;2023-08-24T06:26:58;168778.56;;;25.15;56.06
41688;BME280;27371;42.686;23.362;2023-08-24T06:29:24;168816.25;;;25.29;55.13
41688;BME280;27371;42.686;23.362;2023-08-24T06:31:50;168882.25;;;25.54;54.64
41688;BME280;27371;42.686;23.362;2023-08-24T06:34:15;168934.75;;;25.74;53.88
41688;BME280;27371;42.686;23.362;2023-08-24T06:36:40;169019.69;;;26.07;52.91
41688;BME280;27371;42.686;23.362;2023-08-24T06:39:06;169145.00;;;26.54;51.61
41688;BME280;27371;42.686;23.362;2023-08-24T06:41:35;169182.72;;;26.69;51.09
41688;BME280;27371;42.686;23.362;2023-08-24T06:44:01;169216.44;;;26.81;50.58
41688;BME280;27371;42.686;23.362;2023-08-24T06:46:27;169232.59;;;26.87;50.39
41688;BME280;27371;42.686;23.362;2023-08-24T06:48:53;169212.41;;;26.80;49.85
41688;BME280;27371;42.686;23.362;2023-08-24T06:51:18;169204.28;;;26.77;50.51
41688;BME280;27371;42.686;23.362;2023-08-24T06:53:44;169247.41;;;26.93;49.77
41688;BME280;27371;42.686;23.362;2023-08-24T06:56:12;169240.69;;;26.91;49.70
41688;BME280;27371;42.686;23.362;2023-08-24T06:58:39;169255.56;;;26.96;49.80
41688;BME280;27371;42.686;23.362;2023-08-24T07:01:04;169220.50;;;26.83;49.76
41688;BME280;27371;42.686;23.362;2023-08-24T07:03:32;169268.97;;;27.01;49.71
41688;BME280;27371;42.686;23.362;2023-08-24T07:05:58;169324.31;;;27.22;49.32
41688;BME280;27371;42.686;23.362;2023-08-24T07:08:24;169355.28;;;27.34;48.50
41688;BME280;27371;42.686;23.362;2023-08-24T07:10:49;169353.94;;;27.34;48.22
41688;BME280;27371;42.686;23.362;2023-08-24T07:13:15;169298.63;;;27.13;48.61
41688;BME280;27371;42.686;23.362;2023-08-24T07:15:40;169250.16;;;26.94;49.45
41688;BME280;27371;42.686;23.362;2023-08-24T07:18:06;169223.19;;;26.84;49.45
41688;BME280;27371;42.686;23.362;2023-08-24T07:20:33;169219.16;;;26.82;49.69
41688;BME280;27371;42.686;23.362;2023-08-24T07:22:58;169220.50;;;26.83;50.00
41688;BME280;27371;42.686;23.362;2023-08-24T07:25:24;169252.81;;;26.95;49.80
41688;BME280;27371;42.686;23.362;2023-08-24T07:27:49;169282.47;;;27.06;49.39
41688;BME280;27371;42.686;23.362;2023-08-24T07:30:15;169309.50;;;27.17;48.77
41688;BME280;27371;42.686;23.362;2023-08-24T07:32:40;169328.38;;;27.24;48.08
41688;BME280;27371;42.686;23.362;2023-08-24T07:35:07;169352.63;;;27.33;47.58
41688;BME280;27371;42.686;23.362;2023-08-24T07:37:33;169370.13;;;27.40;47.26
41688;BME280;27371;42.686;23.362;2023-08-24T07:39:58;169403.84;;;27.52;47.19
41688;BME280;27371;42.686;23.362;2023-08-24T07:42:24;169457.72;;;27.73;46.69
41688;BME280;27371;42.686;23.362;2023-08-24T07:44:50;169490.16;;;27.85;47.04
41688;BME280;27371;42.686;23.362;2023-08-24T07:47:16;169469.88;;;27.77;46.65
41688;BME280;27371;42.686;23.362;2023-08-24T07:49:42;169480.75;;;27.82;46.36
41688;BME280;27371;42.686;23.362;2023-08-24T07:52:11;169521.16;;;27.97;46.27
41688;BME280;27371;42.686;23.362;2023-08-24T07:54:37;169599.38;;;28.27;46.24
41688;BME280;27371;42.686;23.362;2023-08-24T07:57:04;169687.06;;;28.60;45.34
41688;BME280;27371;42.686;23.362;2023-08-24T07:59:30;169738.31;;;28.79;44.96
41688;BME280;27371;42.686;23.362;2023-08-24T08:01:56;169816.59;;;29.09;44.37
41688;BME280;27371;42.686;23.362;2023-08-24T08:04:22;169909.69;;;29.44;43.64
41688;BME280;27371;42.686;23.362;2023-08-24T08:06:48;169915.03;;;29.46;43.02
41688;BME280;27371;42.686;23.362;2023-08-24T08:09:13;169962.34;;;29.64;42.91
41688;BME280;27371;42.686;23.362;2023-08-24T08:11:39;169916.38;;;29.47;42.04
41688;BME280;27371;42.686;23.362;2023-08-24T08:14:04;170056.78;;;30.00;41.17
41688;BME280;27371;42.686;23.362;2023-08-24T08:16:30;170095.88;;;30.15;41.03
41688;BME280;27371;42.686;23.362;2023-08-24T08:18:56;170058.13;;;30.01;41.34
41688;BME280;27371;42.686;23.362;2023-08-24T08:21:21;170078.38;;;30.08;41.22
41688;BME280;27371;42.686;23.362;2023-08-24T08:23:48;170117.53;;;30.23;40.74
41688;BME280;27371;42.686;23.362;2023-08-24T08:26:15;170113.47;;;30.22;39.59
41688;BME280;27371;42.686;23.362;2023-08-24T08:28:41;170233.59;;;30.67;39.03
41688;BME280;27371;42.686;23.362;2023-08-24T08:31:07;170270.06;;;30.81;38.85
41688;BME280;27371;42.686;23.362;2023-08-24T08:33:33;170290.34;;;30.89;38.38
41688;BME280;27371;42.686;23.362;2023-08-24T08:35:58;170290.34;;;30.89;38.27
41688;BME280;27371;42.686;23.362;2023-08-24T08:38:24;170347.03;;;31.10;37.96
41688;BME280;27371;42.686;23.362;2023-08-24T08:40:55;170402.34;;;31.31;37.40
41688;BME280;27371;42.686;23.362;2023-08-24T08:43:22;170430.75;;;31.42;37.28
41688;BME280;27371;42.686;23.362;2023-08-24T08:45:49;170247.09;;;30.72;37.23
41688;BME280;27371;42.686;23.362;2023-08-24T08:48:16;170449.69;;;31.49;37.15
41688;BME280;27371;42.686;23.362;2023-08-24T08:50:42;170463.19;;;31.54;37.28
41688;BME280;27371;42.686;23.362;2023-08-24T08:53:08;170480.72;;;31.61;37.01
41688;BME280;27371;42.686;23.362;2023-08-24T08:55:34;170483.41;;;31.62;37.11
41688;BME280;27371;42.686;23.362;2023-08-24T08:58:00;170482.06;;;31.61;36.50
41688;BME280;27371;42.686;23.362;2023-08-24T09:00:29;170513.09;;;31.73;36.53
41688;BME280;27371;42.686;23.362;2023-08-24T09:02:57;170559.03;;;31.90;36.38
41688;BME280;27371;42.686;23.362;2023-08-24T09:05:23;170629.25;;;32.17;35.64
41688;BME280;27371;42.686;23.362;2023-08-24T09:07:53;170671.13;;;32.33;35.25
41688;BME280;27371;42.686;23.362;2023-08-24T09:10:19;170680.56;;;32.36;34.84
41688;BME280;27371;42.686;23.362;2023-08-24T09:12:45;170692.75;;;32.41;35.18
41688;BME280;27371;42.686;23.362;2023-08-24T09:15:11;170748.19;;;32.62;34.82
41688;BME280;27371;42.686;23.362;2023-08-24T09:17:42;170806.28;;;32.84;34.12
41688;BME280;27371;42.686;23.362;2023-08-24T09:20:08;170826.50;;;32.92;34.07
41688;BME280;27371;42.686;23.362;2023-08-24T09:22:36;170819.78;;;32.89;33.74
41688;BME280;27371;42.686;23.362;2023-08-24T09:25:02;170879.25;;;33.12;33.53
41688;BME280;27371;42.686;23.362;2023-08-24T09:27:30;170867.09;;;33.07;33.41
41688;BME280;27371;42.686;23.362;2023-08-24T09:29:57;170894.13;;;33.17;33.48
41688;BME280;27371;42.686;23.362;2023-08-24T09:32:24;170945.44;;;33.37;33.41
41688;BME280;27371;42.686;23.362;2023-08-24T09:34:53;170948.13;;;33.38;33.30
41688;BME280;27371;42.686;23.362;2023-08-24T09:40:39;170918.41;;;33.26;33.06
41688;BME280;27371;42.686;23.362;2023-08-24T09:43:12;170904.91;;;33.21;32.58
41688;BME280;27371;42.686;23.362;2023-08-24T09:45:38;170888.69;;;33.15;32.92
41688;BME280;27371;42.686;23.362;2023-08-24T09:48:05;170867.09;;;33.07;32.64
41688;BME280;27371;42.686;23.362;2023-08-24T09:50:34;170867.09;;;33.07;32.69
41688;BME280;27371;42.686;23.362;2023-08-24T09:53:01;170896.78;;;33.18;32.65
41688;BME280;27371;42.686;23.362;2023-08-24T09:55:29;170899.53;;;33.19;32.48
41688;BME280;27371;42.686;23.362;2023-08-24T09:57:58;170902.22;;;33.20;32.43
41688;BME280;27371;42.686;23.362;2023-08-24T10:00:25;170938.69;;;33.34;32.56
41688;BME280;27371;42.686;23.362;2023-08-24T10:02:52;170980.59;;;33.50;31.91
41688;BME280;27371;42.686;23.362;2023-08-24T10:05:26;170984.59;;;33.52;31.65
41688;BME280;27371;42.686;23.362;2023-08-24T10:07:53;170990.06;;;33.54;31.88
41688;BME280;27371;42.686;23.362;2023-08-24T10:10:20;171015.72;;;33.63;31.49
41688;BME280;27371;42.686;23.362;2023-08-24T10:12:50;170952.22;;;33.39;31.77
41688;BME280;27371;42.686;23.362;2023-08-24T10:15:17;171011.69;;;33.62;31.82
41688;BME280;27371;42.686;23.362;2023-08-24T10:17:44;170960.31;;;33.42;31.45
41688;BME280;27371;42.686;23.362;2023-08-24T10:20:10;170961.66;;;33.43;31.74
41688;BME280;27371;42.686;23.362;2023-08-24T10:22:37;170988.72;;;33.53;31.52
41688;BME280;27371;42.686;23.362;2023-08-24T10:25:04;171034.66;;;33.70;30.93
41688;BME280;27371;42.686;23.362;2023-08-24T10:27:30;170991.41;;;33.54;30.50
41688;BME280;27371;42.686;23.362;2023-08-24T10:29:57;170976.50;;;33.48;30.81
41688;BME280;27371;42.686;23.362;2023-08-24T10:32:25;170888.69;;;33.15;31.37
41688;BME280;27371;42.686;23.362;2023-08-24T10:34:51;170808.94;;;32.85;31.85
41688;BME280;27371;42.686;23.362;2023-08-24T10:37:25;170846.75;;;32.99;30.74
41688;BME280;27371;42.686;23.362;2023-08-24T10:39:51;170841.41;;;32.97;30.52
41688;BME280;27371;42.686;23.362;2023-08-24T10:42:16;170902.22;;;33.20;30.66
41688;BME280;27371;42.686;23.362;2023-08-24T10:44:45;170900.88;;;33.20;30.86
41688;BME280;27371;42.686;23.362;2023-08-24T10:52:23;170748.19;;;32.62;33.53
41688;BME280;27371;42.686;23.362;2023-08-24T10:54:50;170650.88;;;32.25;33.87
41688;BME280;27371;42.686;23.362;2023-08-24T10:57:23;170576.63;;;31.97;34.91
41688;BME280;27371;42.686;23.362;2023-08-24T11:00:05;170563.09;;;31.92;35.42
41688;BME280;27371;42.686;23.362;2023-08-24T11:02:45;170529.34;;;31.79;35.89
41688;BME280;27371;42.686;23.362;2023-08-24T11:05:32;170425.34;;;31.40;35.53
41688;BME280;27371;42.686;23.362;2023-08-24T11:07:58;170334.88;;;31.05;36.63
41688;BME280;27371;42.686;23.362;2023-08-24T11:10:31;170291.66;;;30.89;37.17
41688;BME280;27371;42.686;23.362;2023-08-24T11:18:12;170261.94;;;30.78;37.48
41688;BME280;27371;42.686;23.362;2023-08-24T11:20:42;170252.50;;;30.74;37.44
41688;BME280;27371;42.686;23.362;2023-08-24T11:23:07;170193.06;;;30.52;37.78
41688;BME280;27371;42.686;23.362;2023-08-24T11:25:37;170163.41;;;30.40;38.00
41688;BME280;27371;42.686;23.362;2023-08-24T11:28:03;170139.13;;;30.31;38.03
41688;BME280;27371;42.686;23.362;2023-08-24T11:30:31;170128.34;;;30.27;38.33
41688;BME280;27371;42.686;23.362;2023-08-24T11:32:56;170112.06;;;30.21;38.42
41688;BME280;27371;42.686;23.362;2023-08-24T11:35:22;170094.53;;;30.14;38.70
41688;BME280;27371;42.686;23.362;2023-08-24T11:38:06;170078.38;;;30.08;39.88
41688;BME280;27371;42.686;23.362;2023-08-24T11:40:32;170029.78;;;29.90;40.79
41688;BME280;27371;42.686;23.362;2023-08-24T11:42:58;169963.66;;;29.65;41.49
41688;BME280;27371;42.686;23.362;2023-08-24T11:45:24;169912.34;;;29.45;41.98
41688;BME280;27371;42.686;23.362;2023-08-24T11:47:50;169855.69;;;29.24;42.41
41688;BME280;27371;42.686;23.362;2023-08-24T11:50:17;169879.97;;;29.33;42.64
41688;BME280;27371;42.686;23.362;2023-08-24T11:52:43;169858.38;;;29.25;42.75
41688;BME280;27371;42.686;23.362;2023-08-24T11:55:09;169832.78;;;29.15;42.66
41688;BME280;27371;42.686;23.362;2023-08-24T11:57:36;169798.97;;;29.02;42.92
41688;BME280;27371;42.686;23.362;2023-08-24T12:00:03;169786.88;;;28.98;43.04
41688;BME280;27371;42.686;23.362;2023-08-24T12:02:30;169740.97;;;28.80;43.57
41688;BME280;27371;42.686;23.362;2023-08-24T12:04:57;169751.81;;;28.84;43.52
41688;BME280;27371;42.686;23.362;2023-08-24T12:07:23;169765.31;;;28.90;43.65
41688;BME280;27371;42.686;23.362;2023-08-24T12:09:49;169785.50;;;28.97;43.17
41688;BME280;27371;42.686;23.362;2023-08-24T12:12:18;169626.34;;;28.37;43.16
41688;BME280;27371;42.686;23.362;2023-08-24T12:14:49;169765.31;;;28.90;42.89
41688;BME280;27371;42.686;23.362;2023-08-24T12:17:15;169738.31;;;28.79;42.89
41688;BME280;27371;42.686;23.362;2023-08-24T12:19:45;169763.91;;;28.89;42.52
41688;BME280;27371;42.686;23.362;2023-08-24T12:22:21;169769.31;;;28.91;42.45
41688;BME280;27371;42.686;23.362;2023-08-24T12:24:47;169781.47;;;28.96;42.46
41688;BME280;27371;42.686;23.362;2023-08-24T12:27:19;169788.22;;;28.98;41.38
41688;BME280;27371;42.686;23.362;2023-08-24T12:29:48;169812.53;;;29.07;41.03
41688;BME280;27371;42.686;23.362;2023-08-24T12:32:14;169828.69;;;29.14;41.54
41688;BME280;27371;42.686;23.362;2023-08-24T12:34:41;169847.59;;;29.21;42.24
41688;BME280;27371;42.686;23.362;2023-08-24T12:37:08;169878.63;;;29.33;41.85
41688;BME280;27371;42.686;23.362;2023-08-24T12:39:39;169889.44;;;29.37;41.38
41688;BME280;27371;42.686;23.362;2023-08-24T12:42:05;169902.94;;;29.42;41.21
41688;BME280;27371;42.686;23.362;2023-08-24T12:44:32;169921.78;;;29.49;41.30
41688;BME280;27371;42.686;23.362;2023-08-24T12:46:58;169948.78;;;29.59;40.47
41688;BME280;27371;42.686;23.362;2023-08-24T12:49:24;169969.09;;;29.67;40.53
41688;BME280;27371;42.686;23.362;2023-08-24T12:51:50;169992.00;;;29.76;40.15
41688;BME280;27371;42.686;23.362;2023-08-24T12:54:15;170013.59;;;29.84;39.94